createdAt,value
2023-02-15T03:13:06.606Z,19.77
2023-02-15T03:15:57.351Z,22.02
2023-02-15T03:18:28.974Z,20.77
2023-02-15T03:20:57.038Z,21.48
2023-02-15T03:23:26.579Z,22.58
2023-02-15T03:25:59.657Z,22.80
2023-02-15T04:12:36.014Z,21.30
2023-02-15T04:15:21.484Z,22.38
2023-02-15T04:17:48.107Z,21.30
2023-02-15T04:20:33.631Z,20.95
2023-02-15T04:30:32.445Z,20.60
2023-02-15T04:32:59.162Z,22.35
2023-02-15T04:35:26.673Z,22.48
2023-02-15T04:37:53.385Z,20.42
2023-02-15T04:40:20.190Z,20.55
2023-02-15T04:46:38.136Z,19.75
2023-02-15T04:49:04.834Z,20.80
2023-02-15T04:51:31.484Z,23.27
2023-02-15T04:53:58.138Z,23.60
2023-02-15T04:56:25.001Z,23.65
2023-02-15T04:58:51.680Z,23.98
2023-02-15T05:01:18.745Z,21.70
2023-02-15T05:34:34.613Z,24.23
2023-02-15T05:37:01.334Z,22.88
2023-02-15T05:39:27.946Z,24.50
2023-02-15T05:41:54.615Z,25.40
2023-02-15T05:44:21.320Z,25.23
2023-02-15T06:02:13.798Z,24.27
2023-02-15T06:04:42.559Z,22.92
2023-02-15T06:07:09.411Z,21.70
2023-02-15T06:09:36.346Z,21.75
2023-02-15T07:10:29.902Z,26.33
2023-02-15T07:36:05.021Z,33.33
2023-02-15T07:38:36.957Z,34.95
2023-02-15T07:41:09.532Z,37.25
2023-02-15T07:54:59.937Z,35.65
2023-02-15T07:57:26.533Z,36.03
2023-02-15T07:59:53.293Z,39.45
2023-02-15T08:15:30.792Z,39.92
2023-02-15T08:17:57.501Z,41.40
2023-02-15T08:20:24.274Z,42.85
2023-02-15T08:22:50.914Z,44.38
2023-02-15T09:11:23.832Z,48.40
2023-02-15T09:13:56.251Z,56.88
2023-02-15T09:16:24.791Z,58.35
2023-02-15T09:18:52.270Z,55.22
2023-02-15T09:21:21.618Z,62.53
2023-02-15T09:23:50.591Z,54.65
2023-02-15T09:26:22.792Z,60.72
2023-02-15T10:00:24.391Z,57.13
2023-02-15T10:02:53.914Z,60.20
2023-02-15T10:05:48.959Z,61.50
2023-02-15T10:08:40.297Z,65.22
2023-02-15T10:11:40.007Z,73.10
2023-02-15T14:09:10.983Z,33.78
2023-02-15T14:12:03.788Z,31.48
2023-02-15T14:15:07.825Z,34.50
2023-02-15T14:18:12.301Z,31.35
2023-02-15T14:21:02.192Z,36.42
2023-02-15T14:23:41.964Z,35.90
2023-02-15T14:26:20.849Z,29.45
2023-02-15T14:29:16.144Z,26.77
2023-02-15T14:31:47.938Z,34.15
2023-02-15T14:34:26.889Z,33.70
2023-02-15T14:56:14.562Z,29.95
2023-02-15T14:58:53.453Z,26.35
2023-02-15T15:01:34.617Z,29.08
2023-02-15T15:04:09.729Z,32.72
2023-02-15T15:06:42.741Z,29.27
2023-02-15T15:12:58.982Z,29.58
2023-02-15T15:23:39.736Z,32.53
2023-02-15T15:34:16.063Z,30.85
2023-02-15T15:37:24.736Z,23.58
2023-02-15T15:40:25.945Z,33.65
2023-02-15T15:43:14.371Z,30.65
2023-02-15T16:32:19.824Z,38.95
2023-02-15T16:34:59.389Z,35.90
2023-02-15T16:37:28.825Z,35.35
2023-02-15T16:39:56.333Z,39.35
2023-02-15T16:42:29.528Z,36.28
2023-02-15T16:45:06.372Z,32.88
2023-02-15T16:47:39.828Z,33.67
2023-02-15T16:50:07.261Z,31.00
2023-02-15T16:52:35.121Z,30.98
2023-02-15T16:55:06.011Z,31.65
2023-02-15T16:57:36.733Z,31.15
2023-02-15T17:00:17.400Z,32.42
2023-02-15T17:03:14.113Z,31.05
2023-02-15T17:05:40.731Z,32.50
2023-02-15T17:08:17.475Z,34.60
2023-02-15T17:11:07.304Z,28.13
2023-02-15T17:13:34.035Z,32.17
2023-02-15T17:16:01.025Z,28.20
2023-02-15T17:18:34.048Z,27.77
2023-02-15T17:21:12.891Z,28.40
2023-02-15T17:23:46.294Z,29.27
2023-02-15T17:26:29.746Z,30.23
2023-02-15T17:28:59.889Z,29.33
2023-02-15T17:31:32.907Z,30.05
2023-02-15T17:34:01.598Z,31.23
2023-02-15T17:36:30.853Z,30.00
2023-02-15T17:39:21.594Z,29.83
2023-02-15T17:41:48.386Z,29.38
2023-02-15T17:44:16.384Z,30.40
2023-02-15T17:46:44.360Z,30.88
2023-02-15T17:49:24.467Z,32.53
2023-02-15T17:51:51.192Z,33.30
2023-02-15T17:54:36.619Z,31.67
2023-02-15T17:57:06.813Z,31.52
2023-02-15T17:59:33.502Z,35.53
2023-02-15T18:02:18.674Z,33.22
2023-02-15T18:05:04.535Z,36.10
2023-02-15T18:07:49.997Z,36.17
2023-02-15T18:10:38.089Z,37.95
2023-02-15T18:13:04.811Z,41.40
2023-02-15T18:15:31.627Z,39.53
2023-02-15T18:17:59.446Z,37.20
2023-02-15T18:20:31.634Z,36.50
2023-02-15T18:22:58.409Z,37.03
2023-02-15T18:25:25.573Z,35.70
2023-02-15T18:27:55.109Z,35.67
2023-02-15T18:30:24.515Z,36.08
2023-02-15T18:32:54.087Z,36.60
2023-02-15T18:35:24.335Z,33.28
2023-02-15T18:37:53.312Z,34.97
2023-02-15T18:40:27.302Z,35.05
2023-02-15T18:42:57.341Z,38.40
2023-02-15T18:45:33.048Z,37.08
2023-02-15T18:47:59.953Z,34.17
2023-02-15T18:50:32.992Z,34.47
2023-02-15T18:52:59.780Z,35.20
2023-02-15T18:55:28.346Z,35.88
2023-02-15T18:57:57.121Z,34.00
2023-02-15T19:00:32.667Z,35.60
2023-02-15T19:03:00.459Z,33.92
2023-02-15T19:05:29.019Z,37.72
2023-02-15T19:07:57.397Z,34.38
2023-02-15T19:10:27.153Z,37.53
2023-02-15T19:12:55.873Z,35.40
2023-02-15T19:15:30.047Z,35.53
2023-02-15T19:17:56.890Z,35.30
2023-02-15T19:20:47.766Z,33.00
2023-02-15T19:23:19.247Z,35.88
2023-02-15T19:25:47.073Z,35.63
2023-02-15T19:28:32.364Z,36.92
2023-02-15T19:30:59.060Z,39.13
2023-02-15T19:33:25.801Z,38.67
2023-02-15T19:35:57.098Z,40.00
2023-02-15T19:38:32.196Z,43.33
2023-02-15T19:41:05.929Z,39.08
2023-02-15T19:43:33.897Z,43.60
2023-02-15T19:46:00.971Z,41.85
2023-02-15T19:48:27.861Z,39.58
2023-02-15T19:50:56.784Z,37.35
2023-02-15T19:53:25.617Z,36.78
2023-02-15T19:55:53.213Z,35.15
2023-02-15T19:58:20.450Z,35.08
2023-02-15T20:00:49.370Z,33.85
2023-02-15T20:03:16.356Z,33.75
2023-02-15T20:05:43.841Z,33.33
2023-02-15T20:08:17.457Z,35.20
2023-02-15T20:10:45.407Z,33.90
2023-02-15T20:13:17.584Z,34.60
2023-02-15T20:15:45.327Z,32.05
2023-02-15T20:18:12.097Z,33.15
2023-02-15T20:20:46.292Z,33.00
2023-02-15T20:23:30.705Z,35.67
2023-02-15T20:28:28.237Z,33.78
2023-02-15T20:30:55.569Z,34.25
2023-02-15T20:33:22.986Z,35.42
2023-02-15T20:35:51.036Z,34.33
2023-02-15T20:38:28.037Z,35.10
2023-02-15T20:41:14.383Z,33.60
2023-02-15T20:43:41.780Z,32.53
2023-02-15T20:46:08.865Z,40.47
2023-02-15T20:48:35.625Z,37.83
2023-02-15T20:51:04.255Z,36.25
2023-02-15T20:53:31.146Z,34.35
2023-02-15T20:55:57.852Z,36.75
2023-02-15T20:58:27.511Z,35.13
2023-02-15T21:00:56.950Z,37.30
2023-02-15T21:03:31.089Z,37.75
2023-02-15T21:05:58.893Z,31.33
2023-02-15T21:08:26.355Z,33.63
2023-02-15T21:10:54.314Z,36.60
2023-02-15T21:13:28.727Z,32.50
2023-02-15T21:15:56.233Z,34.35
2023-02-15T21:18:24.370Z,36.20
2023-02-15T21:20:54.253Z,33.03
2023-02-15T21:23:34.233Z,36.95
2023-02-15T21:26:01.939Z,34.47
2023-02-15T21:28:29.759Z,34.17
2023-02-15T21:30:57.958Z,35.25
2023-02-15T21:33:25.457Z,34.58
2023-02-15T21:35:55.456Z,37.40
2023-02-15T21:38:25.154Z,36.25
2023-02-15T21:40:52.012Z,32.25
2023-02-15T21:43:42.155Z,33.53
2023-02-15T21:46:36.235Z,33.92
2023-02-15T21:49:04.708Z,34.00
2023-02-15T21:51:50.530Z,31.25
2023-02-15T21:54:19.532Z,31.80
2023-02-15T21:56:48.380Z,36.03
2023-02-15T21:59:16.635Z,34.45
2023-02-15T22:01:48.702Z,33.83
2023-02-15T22:04:28.081Z,31.30
2023-02-15T22:06:55.587Z,32.72
2023-02-15T22:09:27.287Z,33.00
2023-02-15T22:11:54.764Z,33.30
2023-02-15T22:14:37.952Z,36.78
2023-02-15T22:17:17.535Z,36.30
2023-02-15T22:19:45.524Z,35.72
2023-02-15T22:22:12.247Z,38.28
2023-02-15T22:24:39.234Z,37.13
2023-02-15T22:27:07.033Z,38.38
2023-02-15T22:29:34.258Z,40.03
2023-02-15T22:32:01.091Z,39.17
2023-02-15T22:34:32.497Z,38.22
2023-02-15T22:36:59.443Z,36.97
2023-02-15T22:39:26.207Z,38.40
2023-02-15T22:41:53.840Z,37.78
2023-02-15T22:44:28.641Z,36.08
2023-02-15T22:46:56.271Z,37.58
2023-02-15T22:49:23.106Z,37.97
2023-02-15T22:51:51.137Z,37.53
2023-02-15T22:54:18.677Z,37.08
2023-02-15T22:56:52.651Z,38.58
2023-02-15T22:59:28.848Z,40.27
2023-02-15T23:01:56.745Z,35.75
2023-02-15T23:04:25.320Z,35.75
2023-02-15T23:06:53.353Z,37.28
2023-02-15T23:09:20.268Z,37.42
2023-02-15T23:11:50.916Z,38.33
2023-02-15T23:14:46.838Z,37.95
2023-02-15T23:17:13.413Z,31.92
2023-02-15T23:19:40.175Z,35.97
2023-02-15T23:22:18.002Z,38.40
2023-02-15T23:24:51.955Z,36.88
2023-02-15T23:27:37.385Z,37.90
2023-02-15T23:30:06.878Z,39.53
2023-02-15T23:32:33.668Z,41.00
2023-02-15T23:35:05.280Z,41.88
2023-02-15T23:37:31.892Z,40.83
2023-02-15T23:40:17.530Z,41.40
2023-02-15T23:42:44.434Z,37.30
2023-02-15T23:45:21.970Z,40.90
2023-02-15T23:48:07.577Z,39.33
2023-02-15T23:50:34.204Z,37.35
2023-02-15T23:53:04.233Z,38.28
2023-02-15T23:55:43.079Z,41.80
2023-02-15T23:58:16.225Z,41.05
